createdAt,value
2019-02-07T00:00:35.971Z,3.20
2019-02-07T00:01:39.662Z,1.70
2019-02-07T00:02:43.298Z,2.52
2019-02-07T00:03:46.934Z,3.58
2019-02-07T00:04:50.604Z,3.92
2019-02-07T00:05:54.337Z,2.10
2019-02-07T00:06:58.054Z,2.20
2019-02-07T00:08:02.375Z,3.37
2019-02-07T00:09:08.419Z,2.60
2019-02-07T00:10:15.136Z,4.50
2019-02-07T00:11:18.776Z,2.02
2019-02-07T00:12:22.409Z,3.08
2019-02-07T00:13:26.056Z,3.30
2019-02-07T00:14:39.528Z,4.00
2019-02-07T00:15:36.639Z,4.60
2019-02-07T00:16:40.537Z,3.83
2019-02-07T00:17:44.375Z,3.00
2019-02-07T00:18:48.052Z,2.35
2019-02-07T00:19:51.688Z,1.52
2019-02-07T00:20:55.470Z,3.75
2019-02-07T00:21:59.032Z,15.90
2019-02-07T00:23:02.965Z,18.25
2019-02-07T00:24:07.066Z,8.97
2019-02-07T00:25:11.209Z,57.65
2019-02-07T00:26:14.858Z,17.35
2019-02-07T00:27:18.498Z,16.80
2019-02-07T00:28:22.129Z,7.70
2019-02-07T00:29:25.787Z,7.33
2019-02-07T00:30:29.439Z,2.98
2019-02-07T00:31:33.220Z,4.03
2019-02-07T00:32:36.852Z,5.67
2019-02-07T00:33:40.491Z,5.90
2019-02-07T00:34:44.123Z,5.10
2019-02-07T00:35:47.762Z,4.70
2019-02-07T00:36:51.438Z,4.60
2019-02-07T00:37:55.808Z,6.33
2019-02-07T00:38:59.446Z,12.80
2019-02-07T00:40:03.091Z,14.85
2019-02-07T00:41:06.828Z,10.78
2019-02-07T00:42:10.484Z,5.58
2019-02-07T00:43:15.061Z,6.40
2019-02-07T00:44:18.704Z,6.87
2019-02-07T00:45:22.337Z,8.23
2019-02-07T00:46:26.048Z,3.42
2019-02-07T00:47:29.719Z,4.30
2019-02-07T00:48:33.357Z,5.37
2019-02-07T00:49:36.991Z,4.40
2019-02-07T00:50:40.628Z,6.12
2019-02-07T00:51:44.439Z,4.55
2019-02-07T00:52:48.599Z,5.40
2019-02-07T00:53:52.237Z,5.67
2019-02-07T00:54:55.878Z,6.30
2019-02-07T00:55:59.525Z,5.00
2019-02-07T00:57:03.148Z,3.20
2019-02-07T00:58:07.259Z,4.12
2019-02-07T00:59:10.896Z,4.67
2019-02-07T01:00:18.129Z,6.53
2019-02-07T01:01:21.766Z,4.87
2019-02-07T01:02:25.397Z,2.83
2019-02-07T01:03:29.168Z,5.37
2019-02-07T01:04:33.033Z,3.45
2019-02-07T01:05:36.736Z,4.05
2019-02-07T01:06:40.364Z,3.50
2019-02-07T01:07:45.471Z,5.25
2019-02-07T01:08:49.212Z,3.20
2019-02-07T01:09:52.846Z,4.40
2019-02-07T01:10:56.593Z,6.95
2019-02-07T01:12:00.234Z,4.40
2019-02-07T01:13:04.376Z,2.98
2019-02-07T01:14:08.046Z,3.85
2019-02-07T01:15:13.392Z,2.25
2019-02-07T01:16:17.022Z,5.50
2019-02-07T01:17:20.850Z,2.93
2019-02-07T01:18:24.514Z,5.30
2019-02-07T01:19:28.685Z,6.25
2019-02-07T01:20:32.633Z,3.60
2019-02-07T01:21:36.264Z,2.65
2019-02-07T01:22:40.488Z,3.77
2019-02-07T01:23:44.199Z,3.75
2019-02-07T01:24:47.865Z,3.02
2019-02-07T01:25:51.573Z,3.12
2019-02-07T01:26:55.208Z,3.62
2019-02-07T01:27:58.908Z,3.75
2019-02-07T01:29:02.540Z,1.77
2019-02-07T01:30:09.195Z,4.47
2019-02-07T01:31:12.907Z,3.17
2019-02-07T01:32:16.533Z,3.73
2019-02-07T01:33:20.553Z,6.55
2019-02-07T01:34:24.560Z,5.90
2019-02-07T01:35:28.212Z,7.08
2019-02-07T01:36:31.849Z,6.00
2019-02-07T01:37:35.863Z,6.60
2019-02-07T01:38:39.500Z,4.62
2019-02-07T01:39:43.530Z,6.73
2019-02-07T01:40:47.203Z,6.78
2019-02-07T01:41:51.224Z,4.55
2019-02-07T01:42:55.856Z,5.03
2019-02-07T01:43:59.584Z,3.37
2019-02-07T01:45:12.778Z,3.35
2019-02-07T01:46:08.843Z,5.60
2019-02-07T01:47:12.479Z,2.72
2019-02-07T01:48:16.109Z,4.47
2019-02-07T01:49:19.745Z,6.75
2019-02-07T01:50:26.932Z,4.75
2019-02-07T01:51:30.594Z,5.12
2019-02-07T01:52:34.615Z,3.17
2019-02-07T01:53:38.250Z,4.00
2019-02-07T01:54:41.897Z,4.58
2019-02-07T01:55:45.894Z,2.40
2019-02-07T01:56:49.578Z,5.05
2019-02-07T01:57:53.223Z,6.12
2019-02-07T01:58:56.861Z,4.55
2019-02-07T02:00:00.498Z,5.47
2019-02-07T02:01:04.299Z,6.15
2019-02-07T02:02:07.947Z,5.62
2019-02-07T02:03:11.585Z,4.42
2019-02-07T02:04:15.213Z,6.87
2019-02-07T02:05:19.849Z,5.72
2019-02-07T02:06:23.822Z,6.27
2019-02-07T02:07:27.937Z,5.42
2019-02-07T02:08:31.576Z,4.87
2019-02-07T02:09:35.544Z,6.17
2019-02-07T02:10:39.285Z,5.67
2019-02-07T02:11:42.917Z,5.83
2019-02-07T02:12:46.703Z,5.55
2019-02-07T02:13:50.333Z,4.53
2019-02-07T02:14:53.962Z,4.42
2019-02-07T02:15:57.593Z,4.83
2019-02-07T02:17:01.233Z,5.35
2019-02-07T02:18:05.112Z,13.40
2019-02-07T02:19:08.748Z,8.80
2019-02-07T02:20:14.982Z,5.20
2019-02-07T02:21:18.889Z,5.95
2019-02-07T02:22:22.598Z,5.08
2019-02-07T02:23:26.274Z,4.92
2019-02-07T02:24:29.991Z,4.10
2019-02-07T02:25:33.625Z,8.85
2019-02-07T02:26:37.259Z,6.08
2019-02-07T02:27:41.192Z,5.70
2019-02-07T02:28:44.878Z,38.78
2019-02-07T02:29:48.887Z,10.82
2019-02-07T02:30:52.533Z,17.00
2019-02-07T02:31:56.216Z,21.23
2019-02-07T02:33:00.071Z,9.90
2019-02-07T02:34:04.253Z,8.10
2019-02-07T02:35:08.695Z,5.78
2019-02-07T02:36:12.617Z,6.05
2019-02-07T02:37:16.247Z,5.85
2019-02-07T02:38:19.875Z,6.90
2019-02-07T02:39:23.548Z,7.25
2019-02-07T02:40:27.275Z,4.85
2019-02-07T02:41:30.920Z,6.22
2019-02-07T02:42:34.845Z,7.20
2019-02-07T02:43:38.480Z,6.30
2019-02-07T02:44:42.145Z,7.62
2019-02-07T02:45:45.783Z,15.88
2019-02-07T02:46:49.438Z,5.25
2019-02-07T02:47:53.665Z,3.00
2019-02-07T02:48:57.506Z,2.12
2019-02-07T02:50:01.478Z,5.03
2019-02-07T02:51:05.619Z,4.28
2019-02-07T02:52:09.262Z,5.42
2019-02-07T02:53:12.900Z,7.10
2019-02-07T02:54:33.476Z,10.23
2019-02-07T02:55:39.011Z,4.75
2019-02-07T02:56:42.642Z,4.17
2019-02-07T02:57:46.269Z,4.92
2019-02-07T02:58:49.905Z,3.25
2019-02-07T02:59:53.644Z,6.17
2019-02-07T03:01:02.188Z,6.33
2019-02-07T03:02:07.962Z,3.33
2019-02-07T03:03:19.562Z,4.30
2019-02-07T03:04:24.839Z,3.77
2019-02-07T03:05:36.200Z,4.45
2019-02-07T03:06:41.498Z,2.15
2019-02-07T03:07:52.682Z,3.42
2019-02-07T03:09:13.852Z,3.35
2019-02-07T03:10:19.124Z,4.90
2019-02-07T03:11:39.858Z,4.47
2019-02-07T03:12:48.228Z,3.55
2019-02-07T03:13:53.533Z,4.33
2019-02-07T03:16:54.522Z,3.67
2019-02-07T03:18:15.979Z,4.00
2019-02-07T03:19:24.217Z,4.00
2019-02-07T03:20:35.920Z,5.80
2019-02-07T03:23:16.322Z,3.55
2019-02-07T03:24:27.615Z,5.87
2019-02-07T03:25:32.886Z,5.87
2019-02-07T03:26:54.206Z,5.97
2019-02-07T03:28:08.688Z,4.50
2019-02-07T03:29:19.755Z,6.47
2019-02-07T03:30:41.701Z,6.28
2019-02-07T03:32:02.151Z,4.97
2019-02-07T03:33:13.112Z,4.50
2019-02-07T03:34:18.385Z,4.75
2019-02-07T03:35:39.727Z,3.58
2019-02-07T03:36:47.699Z,4.53
2019-02-07T03:37:53.006Z,5.33
2019-02-07T03:39:07.560Z,4.03
2019-02-07T03:40:15.339Z,3.95
2019-02-07T03:42:52.069Z,6.33
2019-02-07T03:44:12.884Z,5.65
2019-02-07T03:45:33.321Z,4.70
2019-02-07T03:46:50.357Z,9.70
2019-02-07T03:48:04.623Z,7.03
2019-02-07T03:49:22.201Z,7.70
2019-02-07T03:50:33.782Z,7.70
2019-02-07T03:51:39.553Z,4.67
2019-02-07T03:52:44.824Z,7.40
2019-02-07T03:53:53.204Z,6.58
2019-02-07T03:55:01.592Z,6.92
2019-02-07T03:56:19.304Z,7.22
2019-02-07T03:57:27.122Z,4.78
2019-02-07T04:00:00.871Z,6.20
2019-02-07T04:01:15.385Z,5.92
2019-02-07T04:02:30.230Z,4.10
2019-02-07T04:03:35.504Z,8.50
2019-02-07T04:04:55.949Z,5.87
2019-02-07T04:06:17.559Z,5.22
2019-02-07T04:07:39.240Z,9.43
2019-02-07T04:08:56.531Z,6.03
2019-02-07T04:10:04.709Z,8.95
2019-02-07T04:11:16.029Z,5.50
2019-02-07T04:12:30.352Z,6.67
2019-02-07T04:13:44.518Z,6.62
2019-02-07T04:14:55.392Z,6.53
2019-02-07T04:16:16.194Z,7.42
2019-02-07T04:17:24.270Z,5.20
2019-02-07T04:18:38.817Z,9.20
2019-02-07T04:19:46.670Z,7.10
2019-02-07T04:21:01.121Z,7.70
2019-02-07T04:22:06.800Z,10.20
2019-02-07T04:23:23.924Z,10.15
2019-02-07T04:24:35.315Z,7.47
2019-02-07T04:25:52.625Z,6.20
2019-02-07T04:27:14.097Z,7.72
2019-02-07T04:28:22.157Z,5.72
2019-02-07T04:29:45.447Z,7.62
2019-02-07T04:30:53.719Z,9.18
2019-02-07T04:32:01.880Z,4.45
2019-02-07T04:33:13.366Z,6.65
2019-02-07T04:34:21.220Z,7.50
2019-02-07T04:35:29.364Z,9.75
2019-02-07T04:36:34.625Z,4.35
2019-02-07T04:37:56.347Z,8.18
2019-02-07T04:39:07.875Z,5.80
2019-02-07T04:40:17.045Z,4.90
2019-02-07T04:41:28.470Z,4.67
2019-02-07T04:42:33.752Z,5.60
2019-02-07T04:43:39.315Z,3.90
2019-02-07T04:45:01.189Z,8.68
2019-02-07T04:46:12.256Z,5.60
2019-02-07T04:47:20.521Z,4.17
2019-02-07T04:48:31.747Z,5.17
2019-02-07T04:49:40.161Z,5.22
2019-02-07T04:50:54.291Z,6.37
2019-02-07T04:52:08.384Z,10.90
2019-02-07T04:53:28.934Z,6.55
2019-02-07T04:54:34.204Z,10.23
2019-02-07T04:55:48.137Z,6.10
2019-02-07T04:57:02.583Z,6.78
2019-02-07T04:58:23.047Z,8.88
2019-02-07T04:59:28.322Z,8.98
2019-02-07T05:00:49.809Z,4.72
2019-02-07T05:02:01.141Z,7.92
2019-02-07T05:03:07.002Z,4.17
2019-02-07T05:04:21.183Z,6.80
2019-02-07T05:05:27.028Z,8.53
2019-02-07T05:06:32.302Z,6.40
2019-02-07T05:07:37.623Z,7.10
2019-02-07T05:08:42.894Z,4.70
2019-02-07T05:10:00.514Z,7.50
2019-02-07T05:11:21.782Z,5.72
2019-02-07T05:12:32.316Z,6.50
2019-02-07T05:13:49.808Z,7.12
2019-02-07T05:18:07.619Z,8.70
2019-02-07T05:19:29.775Z,8.80
2019-02-07T05:20:37.885Z,8.10
2019-02-07T05:21:43.184Z,9.18
2019-02-07T05:22:54.299Z,7.72
2019-02-07T05:24:13.518Z,7.10
2019-02-07T05:25:18.831Z,7.97
2019-02-07T05:26:27.057Z,12.33
2019-02-07T05:27:38.279Z,9.95
2019-02-07T05:28:50.410Z,11.38
2019-02-07T05:30:12.349Z,12.23
2019-02-07T05:31:17.672Z,12.23
2019-02-07T05:32:22.955Z,9.73
2019-02-07T05:33:28.226Z,9.63
2019-02-07T05:34:45.776Z,29.35
2019-02-07T05:35:54.035Z,18.55
2019-02-07T05:37:15.835Z,12.45
2019-02-07T05:38:33.579Z,10.80
2019-02-07T05:39:53.990Z,8.05
2019-02-07T05:41:08.270Z,11.10
2019-02-07T05:42:16.893Z,9.35
2019-02-07T05:43:40.640Z,9.98
2019-02-07T05:44:45.939Z,10.88
2019-02-07T05:45:54.107Z,11.03
2019-02-07T05:47:17.576Z,10.93
2019-02-07T05:48:31.728Z,9.18
2019-02-07T05:49:48.970Z,14.35
2019-02-07T05:50:57.084Z,203.52
2019-02-07T05:52:19.065Z,73.72
2019-02-07T05:53:24.341Z,63.85
2019-02-07T05:54:38.808Z,48.65
2019-02-07T05:55:50.140Z,48.55
2019-02-07T05:56:55.485Z,36.17
2019-02-07T05:58:00.778Z,31.80
2019-02-07T05:59:06.171Z,22.62
2019-02-07T06:00:17.015Z,18.70
2019-02-07T06:01:25.263Z,23.55
2019-02-07T06:02:30.541Z,36.90
2019-02-07T06:03:53.938Z,44.03
2019-02-07T06:05:05.604Z,32.98
2019-02-07T06:06:16.790Z,25.65
2019-02-07T06:07:38.569Z,31.82
2019-02-07T06:08:47.073Z,25.88
2019-02-07T06:09:52.555Z,31.02
2019-02-07T06:11:04.197Z,38.38
2019-02-07T06:12:26.238Z,41.80
2019-02-07T06:13:47.821Z,39.38
2019-02-07T06:14:53.108Z,43.48
2019-02-07T06:16:16.400Z,40.03
2019-02-07T06:17:24.688Z,38.05
2019-02-07T06:18:46.341Z,39.00
2019-02-07T06:20:09.906Z,42.27
2019-02-07T06:21:18.225Z,42.20
2019-02-07T06:22:41.577Z,38.20
2019-02-07T06:23:46.863Z,31.85
2019-02-07T06:24:55.141Z,25.10
2019-02-07T06:26:12.520Z,23.67
2019-02-07T06:27:20.639Z,28.87
2019-02-07T06:28:28.793Z,23.57
2019-02-07T06:29:37.296Z,27.13
2019-02-07T06:30:54.503Z,24.60
2019-02-07T06:31:59.831Z,23.00
2019-02-07T06:33:13.725Z,24.35
2019-02-07T06:34:29.354Z,22.48
2019-02-07T06:35:40.769Z,16.60
2019-02-07T06:36:52.059Z,20.48
2019-02-07T06:37:57.375Z,19.87
2019-02-07T06:39:05.399Z,19.98
2019-02-07T06:40:13.338Z,19.70
2019-02-07T06:41:21.743Z,20.43
2019-02-07T06:42:33.401Z,19.27
2019-02-07T06:43:47.372Z,18.02
2019-02-07T06:45:08.824Z,31.33
2019-02-07T06:46:14.278Z,28.00
2019-02-07T06:47:37.940Z,25.90
2019-02-07T06:48:59.319Z,18.77
2019-02-07T06:50:19.447Z,22.00
2019-02-07T06:51:39.614Z,17.98
2019-02-07T06:52:59.867Z,18.73
2019-02-07T06:54:14.251Z,22.37
2019-02-07T06:55:19.637Z,24.90
2019-02-07T06:56:24.927Z,40.52
2019-02-07T06:57:30.602Z,29.72
2019-02-07T06:58:45.031Z,15.88
2019-02-07T06:59:57.467Z,15.28
2019-02-07T07:01:05.760Z,16.95
2019-02-07T07:02:17.126Z,18.52
2019-02-07T07:03:22.607Z,20.35
2019-02-07T07:04:44.483Z,21.82
2019-02-07T07:06:05.176Z,28.57
2019-02-07T07:07:29.627Z,20.50
2019-02-07T07:08:34.914Z,23.32
2019-02-07T07:09:43.240Z,17.85
2019-02-07T07:10:48.528Z,26.93
2019-02-07T07:11:56.819Z,18.90
2019-02-07T07:13:02.097Z,14.45
2019-02-07T07:14:19.503Z,24.90
2019-02-07T07:15:31.004Z,16.45
2019-02-07T07:16:48.599Z,14.35
2019-02-07T07:18:03.091Z,13.48
2019-02-07T07:19:12.434Z,9.50
2019-02-07T07:20:34.287Z,7.37
2019-02-07T07:21:51.537Z,9.37
2019-02-07T07:23:03.100Z,10.47
2019-02-07T07:24:24.492Z,10.47
2019-02-07T07:25:46.324Z,7.80
2019-02-07T07:26:57.610Z,7.93
2019-02-07T07:28:05.820Z,11.40
2019-02-07T07:29:27.270Z,13.00
2019-02-07T07:30:41.523Z,8.33
2019-02-07T07:31:58.743Z,10.27
2019-02-07T07:33:06.993Z,8.83
2019-02-07T07:34:30.245Z,10.63
2019-02-07T07:35:35.522Z,10.07
2019-02-07T07:36:55.822Z,6.83
2019-02-07T07:38:13.450Z,5.10
2019-02-07T07:39:31.325Z,10.30
2019-02-07T07:40:36.597Z,10.70
2019-02-07T07:41:51.404Z,7.73
2019-02-07T07:43:12.062Z,13.10
2019-02-07T07:44:17.339Z,16.27
2019-02-07T07:45:22.623Z,15.70
2019-02-07T07:46:44.067Z,9.03
2019-02-07T07:47:54.947Z,9.53
2019-02-07T07:49:00.263Z,9.80
2019-02-07T07:50:09.372Z,11.87
2019-02-07T07:51:26.286Z,12.53
2019-02-07T07:52:40.315Z,10.77
2019-02-07T07:54:01.725Z,16.43
2019-02-07T07:55:08.599Z,7.63
2019-02-07T07:56:16.825Z,9.27
2019-02-07T07:57:27.749Z,10.03
2019-02-07T07:58:33.137Z,6.60
2019-02-07T07:59:44.339Z,8.70
2019-02-07T08:01:05.773Z,9.87
2019-02-07T08:02:17.468Z,9.63
2019-02-07T08:03:23.123Z,11.40
2019-02-07T08:04:31.383Z,22.37
2019-02-07T08:05:53.574Z,13.77
2019-02-07T08:06:58.869Z,6.53
2019-02-07T08:08:20.398Z,13.83
2019-02-07T08:09:25.667Z,21.73
2019-02-07T08:10:31.087Z,29.20
2019-02-07T08:11:48.683Z,23.27
2019-02-07T08:13:10.238Z,20.67
2019-02-07T08:14:18.340Z,11.50
2019-02-07T08:15:23.569Z,11.43
2019-02-07T08:16:28.875Z,10.80
2019-02-07T08:17:47.595Z,14.40
2019-02-07T08:18:56.317Z,15.90
2019-02-07T08:20:10.590Z,8.60
2019-02-07T08:21:31.863Z,11.73
2019-02-07T08:22:53.936Z,29.70
2019-02-07T08:24:15.886Z,18.20
2019-02-07T08:25:24.164Z,7.60
2019-02-07T08:26:29.443Z,14.23
2019-02-07T08:27:37.692Z,13.80
2019-02-07T08:28:59.143Z,14.23
2019-02-07T08:30:07.472Z,12.33
2019-02-07T08:31:24.582Z,11.33
2019-02-07T08:32:29.860Z,13.70
2019-02-07T08:33:35.141Z,13.37
2019-02-07T08:34:40.448Z,13.10
2019-02-07T08:35:46.078Z,6.77
2019-02-07T08:36:51.714Z,9.53
2019-02-07T08:37:59.801Z,9.20
2019-02-07T08:39:14.120Z,9.20
2019-02-07T08:40:22.489Z,9.43
2019-02-07T08:41:33.775Z,11.33
2019-02-07T08:42:42.140Z,16.27
2019-02-07T08:44:03.847Z,12.00
2019-02-07T08:45:11.861Z,7.90
2019-02-07T08:46:26.435Z,7.43
2019-02-07T08:47:31.775Z,7.03
2019-02-07T08:48:40.289Z,13.17
2019-02-07T08:49:54.245Z,6.80
2019-02-07T08:50:59.520Z,10.53
2019-02-07T08:52:21.229Z,10.40
2019-02-07T08:53:26.679Z,12.37
2019-02-07T08:54:48.114Z,5.63
2019-02-07T08:55:56.216Z,7.27
2019-02-07T08:57:10.629Z,6.63
2019-02-07T08:58:32.680Z,5.23
2019-02-07T08:59:49.775Z,13.50
2019-02-07T09:01:11.586Z,7.33
2019-02-07T09:02:19.695Z,10.60
2019-02-07T09:03:36.834Z,9.60
2019-02-07T09:04:58.526Z,8.63
2019-02-07T09:06:03.807Z,4.47
2019-02-07T09:07:15.171Z,5.73
2019-02-07T09:08:38.670Z,4.63
2019-02-07T09:09:49.768Z,4.70
2019-02-07T09:11:03.964Z,5.07
2019-02-07T09:12:15.242Z,5.50
2019-02-07T09:13:20.974Z,8.70
2019-02-07T09:14:35.609Z,3.10
2019-02-07T09:15:50.719Z,7.10
2019-02-07T09:17:08.026Z,6.63
2019-02-07T09:18:13.496Z,5.20
2019-02-07T09:19:37.216Z,6.40
2019-02-07T09:20:54.079Z,18.30
2019-02-07T09:22:11.095Z,7.60
2019-02-07T09:23:31.253Z,5.13
2019-02-07T09:24:52.741Z,4.97
2019-02-07T09:26:14.430Z,4.57
2019-02-07T09:27:29.140Z,4.90
2019-02-07T09:28:40.296Z,4.93
2019-02-07T09:29:54.837Z,5.23
2019-02-07T09:31:02.853Z,8.37
2019-02-07T09:32:23.344Z,3.63
2019-02-07T09:33:47.886Z,5.40
2019-02-07T09:34:55.997Z,7.97
2019-02-07T09:36:20.145Z,9.30
2019-02-07T09:37:42.217Z,6.03
2019-02-07T09:38:53.300Z,6.83
2019-02-07T09:40:13.667Z,6.00
2019-02-07T09:41:21.991Z,6.03
2019-02-07T09:42:30.016Z,6.83
2019-02-07T09:43:35.285Z,6.20
2019-02-07T09:44:56.786Z,5.97
2019-02-07T09:46:08.073Z,4.60
2019-02-07T09:47:25.669Z,6.83
2019-02-07T09:48:39.955Z,3.90
2019-02-07T09:49:45.236Z,8.17
2019-02-07T09:51:02.597Z,4.93
2019-02-07T09:52:10.776Z,4.87
2019-02-07T09:53:23.789Z,5.77
2019-02-07T09:54:25.614Z,5.27
2019-02-07T09:55:47.393Z,5.20
2019-02-07T09:56:58.845Z,12.50
2019-02-07T09:58:20.896Z,9.37
2019-02-07T09:59:42.429Z,6.70
2019-02-07T10:00:50.669Z,4.17
2019-02-07T10:01:58.998Z,4.47
2019-02-07T10:03:04.822Z,8.93
2019-02-07T10:04:12.936Z,8.80
2019-02-07T10:05:18.207Z,9.20
2019-02-07T10:06:39.614Z,5.10
2019-02-07T10:07:53.914Z,11.43
2019-02-07T10:09:02.251Z,5.67
2019-02-07T10:10:22.796Z,5.03
2019-02-07T10:11:43.392Z,9.07
2019-02-07T10:12:57.464Z,10.70
2019-02-07T10:14:19.786Z,5.87
2019-02-07T10:15:27.900Z,6.33
2019-02-07T10:16:35.892Z,9.33
2019-02-07T10:17:56.436Z,13.53
2019-02-07T10:19:16.676Z,8.17
2019-02-07T10:20:21.998Z,6.30
2019-02-07T10:21:43.742Z,5.33
2019-02-07T10:22:55.113Z,5.00
2019-02-07T10:24:00.422Z,6.20
2019-02-07T10:25:13.403Z,4.97
2019-02-07T10:26:34.885Z,7.97
2019-02-07T10:27:42.748Z,4.57
2019-02-07T10:28:53.918Z,6.17
2019-02-07T10:30:01.963Z,6.43
2019-02-07T10:31:15.843Z,5.57
2019-02-07T10:32:24.211Z,3.93
2019-02-07T10:33:45.412Z,5.83
2019-02-07T10:35:07.616Z,6.60
2019-02-07T10:36:15.711Z,9.60
2019-02-07T10:37:40.572Z,5.27
2019-02-07T10:38:45.848Z,4.60
2019-02-07T10:40:02.858Z,7.50
2019-02-07T10:41:11.257Z,4.83
2019-02-07T10:42:22.867Z,5.80
2019-02-07T10:43:28.143Z,4.10
2019-02-07T10:44:49.676Z,3.93
2019-02-07T10:45:55.648Z,4.20
2019-02-07T10:47:08.624Z,6.00
2019-02-07T10:48:25.620Z,5.77
2019-02-07T10:49:34.240Z,7.33
2019-02-07T10:50:42.450Z,6.63
2019-02-07T10:51:56.808Z,7.07
2019-02-07T10:53:18.548Z,7.30
2019-02-07T10:54:26.766Z,4.13
2019-02-07T10:55:35.200Z,6.40
2019-02-07T10:56:40.654Z,7.03
2019-02-07T10:58:02.398Z,5.93
2019-02-07T10:59:19.633Z,5.97
2019-02-07T11:00:25.798Z,9.30
2019-02-07T11:01:32.515Z,7.67
2019-02-07T11:02:53.947Z,8.83
2019-02-07T11:03:59.426Z,5.13
2019-02-07T11:05:20.961Z,7.90
2019-02-07T11:06:44.566Z,8.83
2019-02-07T11:07:55.615Z,10.13
2019-02-07T11:09:15.081Z,7.50
2019-02-07T11:10:38.287Z,7.40
2019-02-07T11:11:56.252Z,10.20
2019-02-07T11:13:17.724Z,5.60
2019-02-07T11:14:22.999Z,8.90
2019-02-07T11:15:43.425Z,13.23
2019-02-07T11:17:07.258Z,10.90
2019-02-07T11:18:29.109Z,8.20
2019-02-07T11:19:34.859Z,9.83
2019-02-07T11:20:52.940Z,7.10
2019-02-07T11:22:17.028Z,13.40
2019-02-07T11:23:25.060Z,8.40
2019-02-07T11:24:45.501Z,6.43
2019-02-07T11:25:53.843Z,6.50
2019-02-07T11:27:11.005Z,8.40
2019-02-07T11:28:25.939Z,12.27
2019-02-07T11:29:31.220Z,8.47
2019-02-07T11:30:58.795Z,12.23
2019-02-07T11:32:06.631Z,10.33
2019-02-07T11:33:15.106Z,8.03
2019-02-07T11:34:23.108Z,12.90
2019-02-07T11:35:30.877Z,9.53
2019-02-07T11:36:38.590Z,6.67
2019-02-07T11:38:01.705Z,7.13
2019-02-07T11:39:29.934Z,8.50
2019-02-07T11:40:41.324Z,8.10
2019-02-07T11:41:55.393Z,8.43
2019-02-07T11:47:31.951Z,6.43
2019-02-07T11:48:43.392Z,6.93
2019-02-07T11:49:57.256Z,7.70
2019-02-07T11:51:20.388Z,7.57
2019-02-07T11:52:28.366Z,6.63
2019-02-07T11:53:42.905Z,41.23
2019-02-07T11:54:48.177Z,9.77
2019-02-07T11:55:53.516Z,5.50
2019-02-07T11:57:05.095Z,6.73
2019-02-07T11:58:13.339Z,6.23
2019-02-07T11:59:23.199Z,5.20
2019-02-07T12:00:34.349Z,4.17
2019-02-07T12:01:54.302Z,6.20
2019-02-07T12:03:14.881Z,5.10
2019-02-07T12:04:29.049Z,5.27
2019-02-07T12:05:40.302Z,6.43
2019-02-07T12:07:01.776Z,6.20
2019-02-07T12:08:10.034Z,7.63
2019-02-07T12:09:18.041Z,7.10
2019-02-07T12:10:29.114Z,6.03
2019-02-07T12:11:48.590Z,6.57
2019-02-07T12:13:02.731Z,8.30
2019-02-07T12:14:24.886Z,7.70
2019-02-07T12:15:48.485Z,8.53
2019-02-07T12:17:10.620Z,6.17
2019-02-07T12:18:32.185Z,6.70
2019-02-07T12:19:49.615Z,6.40
2019-02-07T12:21:01.110Z,6.67
2019-02-07T12:22:18.272Z,6.10
2019-02-07T12:23:26.108Z,8.67
2019-02-07T12:24:34.558Z,7.10
2019-02-07T12:25:56.257Z,6.30
2019-02-07T12:27:10.572Z,6.20
2019-02-07T12:28:15.851Z,6.80
2019-02-07T12:29:21.429Z,6.30
2019-02-07T12:30:35.523Z,8.07
2019-02-07T12:31:49.746Z,8.50
2019-02-07T12:32:55.403Z,9.90
2019-02-07T12:34:00.678Z,9.80
2019-02-07T12:35:14.490Z,7.03
2019-02-07T12:36:19.762Z,11.83
2019-02-07T12:37:36.992Z,9.50
2019-02-07T12:38:48.594Z,9.57
2019-02-07T12:39:59.886Z,11.27
2019-02-07T12:41:05.169Z,17.00
2019-02-07T12:42:11.085Z,12.93
2019-02-07T12:43:25.946Z,10.60
2019-02-07T12:44:31.219Z,8.83
2019-02-07T12:45:42.590Z,12.77
2019-02-07T12:47:04.064Z,13.10
2019-02-07T12:48:18.417Z,16.30
2019-02-07T12:49:29.244Z,12.37
2019-02-07T12:50:47.014Z,19.00
2019-02-07T12:51:54.997Z,18.37
2019-02-07T12:53:00.274Z,21.83
2019-02-07T12:54:15.376Z,10.00
2019-02-07T12:55:39.185Z,13.37
2019-02-07T12:57:00.890Z,12.67
2019-02-07T12:58:08.842Z,10.80
2019-02-07T12:59:32.731Z,17.23
2019-02-07T13:00:42.067Z,15.23
2019-02-07T13:01:47.846Z,39.47
2019-02-07T13:03:10.236Z,25.07
2019-02-07T13:04:32.600Z,30.87
2019-02-07T13:05:52.727Z,23.07
2019-02-07T13:06:58.059Z,20.43
2019-02-07T13:08:03.348Z,16.90
2019-02-07T13:09:20.084Z,22.00
2019-02-07T13:10:25.424Z,20.30
2019-02-07T13:11:33.624Z,20.40
2019-02-07T13:12:55.116Z,18.47
2019-02-07T13:14:00.429Z,15.37
2019-02-07T13:15:13.417Z,12.33
2019-02-07T13:16:30.741Z,11.90
2019-02-07T13:17:56.470Z,9.47
2019-02-07T13:19:16.767Z,11.13
2019-02-07T13:20:27.770Z,9.70
2019-02-07T13:21:36.036Z,9.27
2019-02-07T13:22:41.323Z,8.13
2019-02-07T13:23:46.618Z,9.57
2019-02-07T13:25:07.332Z,8.70
2019-02-07T13:26:18.668Z,15.70
2019-02-07T13:27:42.282Z,11.77
2019-02-07T13:28:59.492Z,13.00
2019-02-07T13:30:13.637Z,13.23
2019-02-07T13:31:33.994Z,10.83
2019-02-07T13:32:39.650Z,10.20
2019-02-07T13:33:57.055Z,9.17
2019-02-07T13:35:02.339Z,10.80
2019-02-07T13:36:23.821Z,10.43
2019-02-07T13:37:29.111Z,13.00
2019-02-07T13:38:39.157Z,10.50
2019-02-07T13:39:59.339Z,10.03
2019-02-07T13:41:22.672Z,9.37
2019-02-07T13:42:45.972Z,12.93
2019-02-07T13:43:51.274Z,20.53
2019-02-07T13:45:02.340Z,14.47
2019-02-07T13:46:14.113Z,14.07
2019-02-07T13:47:25.160Z,14.30
2019-02-07T13:48:45.896Z,9.30
2019-02-07T13:49:52.191Z,8.97
2019-02-07T13:51:06.893Z,9.63
2019-02-07T13:52:28.602Z,10.67
2019-02-07T13:53:42.924Z,17.13
2019-02-07T13:55:04.012Z,17.47
2019-02-07T13:56:16.316Z,14.13
2019-02-07T13:57:37.030Z,9.50
2019-02-07T13:58:58.480Z,10.83
2019-02-07T14:00:08.647Z,9.63
2019-02-07T14:01:35.152Z,10.43
2019-02-07T14:02:55.781Z,8.10
2019-02-07T14:04:13.026Z,6.80
2019-02-07T14:05:30.129Z,8.03
2019-02-07T14:06:35.395Z,9.53
2019-02-07T14:07:40.696Z,7.60
2019-02-07T14:09:02.574Z,7.80
2019-02-07T14:10:10.928Z,9.80
2019-02-07T14:11:16.903Z,8.97
2019-02-07T14:12:38.616Z,8.00
2019-02-07T14:13:50.055Z,5.87
2019-02-07T14:15:11.836Z,7.53
2019-02-07T14:16:26.204Z,8.40
2019-02-07T14:17:37.416Z,8.03
2019-02-07T14:18:48.643Z,12.17
2019-02-07T14:20:10.279Z,15.43
2019-02-07T14:21:15.653Z,15.10
2019-02-07T14:22:23.932Z,11.83
2019-02-07T14:23:34.956Z,10.53
2019-02-07T14:24:56.514Z,17.93
2019-02-07T14:26:01.788Z,14.33
2019-02-07T14:27:09.540Z,13.30
2019-02-07T14:28:14.851Z,12.53
2019-02-07T14:29:23.007Z,15.97
2019-02-07T14:30:28.281Z,11.83
2019-02-07T14:31:42.654Z,14.60
2019-02-07T14:32:47.943Z,18.97
2019-02-07T14:34:11.409Z,16.97
2019-02-07T14:35:20.021Z,9.50
2019-02-07T14:36:37.412Z,10.23
2019-02-07T14:37:51.877Z,10.13
2019-02-07T14:38:57.121Z,9.80
2019-02-07T14:40:18.872Z,14.43
2019-02-07T14:41:40.320Z,13.77
2019-02-07T14:43:00.949Z,17.30
2019-02-07T14:44:12.832Z,14.30
2019-02-07T14:45:21.054Z,15.57
2019-02-07T14:46:32.065Z,18.80
2019-02-07T14:47:35.795Z,15.20
2019-02-07T14:48:39.774Z,26.77
2019-02-07T14:49:43.453Z,19.37
2019-02-07T14:50:47.292Z,13.67
2019-02-07T14:51:50.933Z,26.87
2019-02-07T14:52:54.568Z,14.97
2019-02-07T14:54:00.713Z,27.20
2019-02-07T14:55:04.950Z,19.17
2019-02-07T14:56:08.614Z,26.40
2019-02-07T14:57:12.248Z,55.63
2019-02-07T14:58:15.890Z,41.00
2019-02-07T14:59:19.531Z,25.53
2019-02-07T15:00:25.569Z,15.57
2019-02-07T15:01:31.491Z,13.13
2019-02-07T15:02:38.218Z,12.27
2019-02-07T15:03:43.530Z,13.60
2019-02-07T15:04:48.688Z,30.27
2019-02-07T15:05:53.794Z,16.03
2019-02-07T15:06:57.973Z,19.20
2019-02-07T15:08:01.596Z,28.20
2019-02-07T15:09:08.490Z,15.47
2019-02-07T15:10:15.300Z,14.87
2019-02-07T15:11:18.943Z,17.53
2019-02-07T15:12:22.988Z,19.47
2019-02-07T15:13:26.714Z,17.97
2019-02-07T15:14:30.355Z,17.37
2019-02-07T15:15:34.070Z,15.30
2019-02-07T15:16:39.368Z,17.47
2019-02-07T15:17:46.180Z,14.13
2019-02-07T15:18:49.811Z,12.30
2019-02-07T15:19:53.458Z,15.13
2019-02-07T15:20:57.104Z,18.83
2019-02-07T15:22:00.740Z,15.90
2019-02-07T15:23:05.312Z,20.30
2019-02-07T15:24:09.357Z,21.23
2019-02-07T15:25:13.995Z,21.60
2019-02-07T15:26:17.627Z,18.77
2019-02-07T15:27:21.445Z,16.80
2019-02-07T15:28:25.391Z,12.57
2019-02-07T15:29:29.122Z,13.07
2019-02-07T15:30:32.845Z,16.53
2019-02-07T15:31:36.480Z,11.03
2019-02-07T15:32:40.187Z,14.90
2019-02-07T15:33:43.871Z,16.43
2019-02-07T15:34:47.607Z,12.57
2019-02-07T15:35:51.515Z,11.53
2019-02-07T15:36:55.249Z,13.87
2019-02-07T15:37:58.888Z,15.40
2019-02-07T15:39:02.826Z,16.00
2019-02-07T15:40:09.482Z,21.67
2019-02-07T15:41:13.381Z,30.63
2019-02-07T15:42:17.465Z,55.10